Wilson, Connecticut
Current Conditions -  °F | °C
As of 1:51 AM on Saturday 25 Oct 2014 (Local Time) from KBDL Reporting Station
Clear Clear  
Wind Chill: 50°   Ceiling: Unl
Heat Index: 50°   Visibility: 10mi
Dew Point: 39°   Wind: 7mph
Humidity: 66%   Direction: 320°NW
Pressure: 29.78"   Gusts: NA
Location:  41.8596°N, 72.6791°W
Report Text: KBDL 250551Z 32006KT 10SM CLR 10/04 A2978 RMK AO2 SLP086 T01000039 10111 20094 50001
Loading
Personal Weather Stations






























Interactive Weather Map
Tropical Storm Tracking
New forecast layout! Learn more

10-Day Weather Forecast

Advertisements
Track Severe Weather on mobile